Mullinville, Kansas
Current Conditions -  °F | °C
As of 11:52 PM on Thursday 30 Oct 2014 (Local Time) from KDDC Reporting Station
Clear Clear  
Wind Chill: 39°   Ceiling: Unl
Heat Index: 45°   Visibility: 10mi
Dew Point: 31°   Wind: 12mph
Humidity: 58%   Direction: 30°NNE
Pressure: 30.36"   Gusts: NA
Location:  37.59°N, 99.48°W
Report Text: KDDC 310452Z AUTO 03010KT 10SM CLR 07/M01 A3036 RMK AO2 SLP273 T00721006
Loading
Personal Weather Stations






























Interactive Weather Map
Tropical Storm Tracking
New forecast layout! Learn more

10-Day Weather Forecast

Advertisements
Track Severe Weather on mobile